Time;durP1;ratioP1;P1;durP2;ratioP2;P2;SDS_P1;SDS_P2;PMS_P1;PMS_P2;Temp;Humidity;BMP_temperature;BMP_pressure;BME280_temperature;BME280_humidity;BME280_pressure;Samples;Min_cycle;Max_cycle;Signal;HPM_P1;HPM_P2
2021/08/17 00:01:05;;;;;;;78.20;10.07;;;;;;;;;;5040043;28;20076;-39
2021/08/17 00:03:32;;;;;;;69.53;9.52;;;;;;;;;;5038977;28;20480;-41
2021/08/17 00:06:01;;;;;;;78.20;10.27;;;;;;;;;;5041201;28;20409;-46
2021/08/17 00:08:29;;;;;;;69.35;10.32;;;;;;;;;;5034313;28;20505;-37
2021/08/17 00:10:56;;;;;;;75.32;11.13;;;;;;;;;;5038439;28;20049;-39
2021/08/17 00:13:23;;;;;;;60.03;9.15;;;;;;;;;;5035593;28;20417;-42
2021/08/17 00:15:50;;;;;;;58.60;9.50;;;;;;;;;;5040422;28;20021;-44
2021/08/17 00:18:17;;;;;;;65.35;11.10;;;;;;;;;;5036697;28;20048;-39
2021/08/17 00:20:45;;;;;;;57.58;11.00;;;;;;;;;;5037577;28;20009;-40
2021/08/17 00:23:12;;;;;;;68.57;10.80;;;;;;;;;;5039994;28;20028;-47
2021/08/17 00:25:43;;;;;;;70.03;10.23;;;;;;;;;;5060653;28;20036;-54
2021/08/17 00:28:17;;;;;;;64.05;10.10;;;;;;;;;;5051404;28;20086;-39
2021/08/17 00:30:44;;;;;;;68.95;10.00;;;;;;;;;;5059077;28;20021;-41
2021/08/17 00:33:11;;;;;;;53.72;10.35;;;;;;;;;;5069696;28;20028;-40
2021/08/17 00:35:38;;;;;;;58.17;10.80;;;;;;;;;;5068183;28;20024;-37
2021/08/17 00:38:05;;;;;;;62.20;10.07;;;;;;;;;;5056536;28;20033;-53
2021/08/17 00:40:35;;;;;;;66.82;11.02;;;;;;;;;;5067243;28;20111;-38
2021/08/17 00:43:03;;;;;;;62.55;11.18;;;;;;;;;;5054022;28;20078;-46
2021/08/17 00:45:30;;;;;;;72.10;11.07;;;;;;;;;;5069426;28;20032;-37
2021/08/17 00:47:57;;;;;;;67.60;10.43;;;;;;;;;;5062647;28;20089;-36
2021/08/17 00:50:28;;;;;;;70.38;11.73;;;;;;;;;;5023708;28;20029;-41
2021/08/17 00:52:55;;;;;;;58.78;11.00;;;;;;;;;;5047098;28;20017;-38
2021/08/17 00:55:23;;;;;;;67.43;10.77;;;;;;;;;;5057121;28;20020;-40
2021/08/17 00:57:50;;;;;;;60.70;10.93;;;;;;;;;;5031210;28;20069;-51
2021/08/17 01:00:17;;;;;;;64.22;11.20;;;;;;;;;;5049287;28;20032;-56
2021/08/17 01:02:45;;;;;;;68.72;12.38;;;;;;;;;;5066345;28;20025;-38
2021/08/17 01:05:12;;;;;;;67.97;11.73;;;;;;;;;;5066979;28;20120;-36
2021/08/17 01:07:46;;;;;;;56.13;11.25;;;;;;;;;;5068588;28;20021;-37
2021/08/17 01:10:13;;;;;;;59.15;11.63;;;;;;;;;;5059548;28;20069;-36
2021/08/17 01:12:41;;;;;;;72.93;12.25;;;;;;;;;;5064128;28;20019;-36
2021/08/17 01:15:10;;;;;;;64.45;12.57;;;;;;;;;;5051596;28;20483;-36
2021/08/17 01:17:47;;;;;;;76.38;14.95;;;;;;;;;;5062461;28;20039;-41
2021/08/17 01:20:15;;;;;;;74.45;14.80;;;;;;;;;;5053840;28;20115;-37
2021/08/17 01:22:43;;;;;;;72.50;12.82;;;;;;;;;;5069435;28;20023;-37
2021/08/17 01:25:11;;;;;;;89.38;13.35;;;;;;;;;;5067947;28;20745;-37
2021/08/17 01:27:42;;;;;;;80.03;14.02;;;;;;;;;;5068969;28;20044;-36
2021/08/17 01:30:10;;;;;;;69.93;13.25;;;;;;;;;;5045227;28;20024;-39
2021/08/17 01:32:37;;;;;;;73.95;13.45;;;;;;;;;;5069003;28;20027;-37
2021/08/17 01:35:05;;;;;;;72.22;15.35;;;;;;;;;;5045994;28;20480;-49
2021/08/17 01:37:32;;;;;;;66.13;12.50;;;;;;;;;;5051993;28;20037;-43
2021/08/17 01:40:04;;;;;;;66.97;13.10;;;;;;;;;;5066100;28;20049;-49
2021/08/17 01:42:31;;;;;;;73.82;13.00;;;;;;;;;;5067132;28;20512;-40
2021/08/17 01:45:01;;;;;;;64.72;11.38;;;;;;;;;;5062016;28;20025;-41
2021/08/17 01:47:32;;;;;;;63.60;11.85;;;;;;;;;;5057021;28;20028;-40
2021/08/17 01:50:02;;;;;;;45.05;10.48;;;;;;;;;;5060750;28;20520;-38
2021/08/17 01:52:33;;;;;;;69.40;12.20;;;;;;;;;;5067068;28;20099;-38
2021/08/17 01:55:00;;;;;;;58.05;10.77;;;;;;;;;;5068214;28;20035;-40
2021/08/17 01:57:27;;;;;;;56.75;11.13;;;;;;;;;;5064773;28;20021;-48
2021/08/17 01:59:54;;;;;;;62.60;12.07;;;;;;;;;;5058758;28;20039;-37
2021/08/17 02:02:22;;;;;;;65.07;11.98;;;;;;;;;;5054859;28;20021;-38
2021/08/17 02:04:49;;;;;;;59.78;11.15;;;;;;;;;;5041571;28;20020;-38
2021/08/17 02:07:16;;;;;;;64.68;11.90;;;;;;;;;;5062673;28;20115;-49
2021/08/17 02:09:43;;;;;;;60.30;12.20;;;;;;;;;;5070038;28;20024;-40
2021/08/17 02:12:10;;;;;;;47.30;10.35;;;;;;;;;;5052154;28;20384;-38
2021/08/17 02:14:37;;;;;;;50.38;11.20;;;;;;;;;;5070830;28;20032;-39
2021/08/17 02:17:04;;;;;;;53.00;11.50;;;;;;;;;;5069828;28;20519;-47
2021/08/17 02:19:31;;;;;;;42.45;10.10;;;;;;;;;;5070288;28;20029;-57
2021/08/17 02:21:58;;;;;;;39.00;10.13;;;;;;;;;;5052328;28;20082;-53
2021/08/17 02:24:25;;;;;;;47.03;10.55;;;;;;;;;;5067870;28;20471;-44
2021/08/17 02:26:52;;;;;;;52.13;10.88;;;;;;;;;;5070229;28;20032;-47
2021/08/17 02:29:19;;;;;;;38.72;9.02;;;;;;;;;;5073208;28;20032;-56
2021/08/17 02:31:46;;;;;;;50.58;9.88;;;;;;;;;;5074904;28;20405;-52
2021/08/17 02:34:13;;;;;;;38.67;9.90;;;;;;;;;;5073468;28;20063;-47
2021/08/17 02:36:40;;;;;;;42.45;9.43;;;;;;;;;;5053113;28;20017;-41
2021/08/17 02:39:08;;;;;;;41.42;9.32;;;;;;;;;;5069222;28;20078;-37
2021/08/17 02:41:35;;;;;;;43.08;9.20;;;;;;;;;;5069252;28;20590;-37
2021/08/17 02:44:02;;;;;;;49.55;9.50;;;;;;;;;;5055381;28;20661;-42
2021/08/17 02:46:29;;;;;;;30.58;8.15;;;;;;;;;;5073170;28;20103;-52
2021/08/17 02:48:56;;;;;;;31.85;8.25;;;;;;;;;;5073722;28;20031;-47
2021/08/17 02:51:23;;;;;;;31.38;8.13;;;;;;;;;;5060285;28;20518;-43
2021/08/17 02:53:50;;;;;;;33.88;8.25;;;;;;;;;;5056181;28;20078;-50
2021/08/17 02:56:17;;;;;;;46.13;9.10;;;;;;;;;;5073680;28;20384;-50
2021/08/17 02:58:44;;;;;;;27.95;7.70;;;;;;;;;;5074014;28;20539;-48
2021/08/17 03:01:12;;;;;;;32.45;7.88;;;;;;;;;;5061076;28;20380;-40
2021/08/17 03:03:39;;;;;;;32.30;8.35;;;;;;;;;;5073990;28;20032;-47
2021/08/17 03:06:06;;;;;;;36.75;8.02;;;;;;;;;;5073273;28;20027;-44
2021/08/17 03:08:33;;;;;;;33.00;7.88;;;;;;;;;;5073675;28;20043;-46
2021/08/17 03:11:00;;;;;;;33.33;7.60;;;;;;;;;;5066374;28;20107;-45
2021/08/17 03:13:27;;;;;;;27.70;7.88;;;;;;;;;;5073886;28;20021;-47
2021/08/17 03:15:54;;;;;;;26.95;7.68;;;;;;;;;;5073423;28;20021;-44
2021/08/17 03:18:22;;;;;;;31.63;7.70;;;;;;;;;;5073440;28;20490;-39
2021/08/17 03:20:50;;;;;;;31.23;7.72;;;;;;;;;;5064024;28;20033;-38
2021/08/17 03:23:17;;;;;;;31.45;7.82;;;;;;;;;;5072910;28;20017;-44
2021/08/17 03:25:44;;;;;;;23.42;6.15;;;;;;;;;;5073821;28;20051;-45
2021/08/17 03:28:11;;;;;;;29.75;7.07;;;;;;;;;;5072844;28;20103;-42
2021/08/17 03:30:38;;;;;;;28.23;6.97;;;;;;;;;;5066602;28;20029;-44
2021/08/17 03:33:06;;;;;;;35.30;7.88;;;;;;;;;;5068748;28;20027;-53
2021/08/17 03:35:33;;;;;;;36.30;7.38;;;;;;;;;;5073054;28;20036;-43
2021/08/17 03:38:00;;;;;;;28.42;7.30;;;;;;;;;;5072677;28;20095;-38
2021/08/17 03:40:27;;;;;;;34.33;6.93;;;;;;;;;;5072216;28;20514;-45
2021/08/17 03:42:54;;;;;;;22.85;6.30;;;;;;;;;;5067314;28;20057;-42
2021/08/17 03:45:22;;;;;;;29.30;7.00;;;;;;;;;;5073013;28;20036;-38
2021/08/17 03:47:50;;;;;;;21.33;6.35;;;;;;;;;;5073155;28;20035;-45
2021/08/17 03:50:17;;;;;;;20.15;5.80;;;;;;;;;;5073346;28;20051;-47
2021/08/17 03:52:45;;;;;;;24.45;6.90;;;;;;;;;;5060303;28;20028;-48
2021/08/17 03:55:12;;;;;;;20.27;5.47;;;;;;;;;;5073499;28;20056;-39
2021/08/17 03:57:39;;;;;;;32.35;7.50;;;;;;;;;;5072249;28;20025;-46
2021/08/17 04:00:08;;;;;;;22.60;6.95;;;;;;;;;;5073093;28;20036;-48
2021/08/17 04:02:35;;;;;;;28.00;7.05;;;;;;;;;;5060536;28;20047;-55
2021/08/17 04:05:02;;;;;;;19.35;5.75;;;;;;;;;;5073125;28;20035;-49
2021/08/17 04:07:30;;;;;;;24.73;6.05;;;;;;;;;;5072955;28;20060;-39
2021/08/17 04:09:57;;;;;;;23.85;6.43;;;;;;;;;;5072464;28;20020;-42
2021/08/17 04:12:24;;;;;;;21.83;5.40;;;;;;;;;;5059906;28;20025;-47
2021/08/17 04:14:52;;;;;;;28.55;6.05;;;;;;;;;;5072233;28;20036;-38
2021/08/17 04:17:19;;;;;;;25.52;5.80;;;;;;;;;;5073086;28;20052;-44
2021/08/17 04:19:46;;;;;;;19.05;5.57;;;;;;;;;;5072252;28;20050;-40
2021/08/17 04:22:13;;;;;;;26.27;6.47;;;;;;;;;;5061448;28;20025;-41
2021/08/17 04:24:40;;;;;;;27.13;5.55;;;;;;;;;;5069081;28;20143;-44
2021/08/17 04:27:07;;;;;;;21.90;5.70;;;;;;;;;;5072996;28;20017;-52
2021/08/17 04:29:34;;;;;;;18.35;5.50;;;;;;;;;;5071603;28;20392;-41
2021/08/17 04:32:01;;;;;;;22.00;6.22;;;;;;;;;;5067985;28;20516;-41
2021/08/17 04:34:28;;;;;;;19.48;5.13;;;;;;;;;;5064268;28;20028;-48
2021/08/17 04:36:55;;;;;;;21.70;5.40;;;;;;;;;;5072201;28;20017;-45
2021/08/17 04:39:22;;;;;;;18.63;5.53;;;;;;;;;;5071829;28;20579;-38
2021/08/17 04:41:49;;;;;;;20.83;5.53;;;;;;;;;;5072497;28;20452;-37
2021/08/17 04:44:16;;;;;;;20.42;5.60;;;;;;;;;;5064411;28;20023;-40
2021/08/17 04:46:43;;;;;;;17.88;4.95;;;;;;;;;;5072662;28;20025;-39
2021/08/17 04:49:10;;;;;;;13.57;5.07;;;;;;;;;;5071727;28;20055;-39
2021/08/17 04:51:37;;;;;;;15.63;4.57;;;;;;;;;;5071205;28;20020;-37
2021/08/17 04:54:04;;;;;;;15.43;4.65;;;;;;;;;;5054636;28;20036;-42
2021/08/17 04:56:31;;;;;;;16.98;5.07;;;;;;;;;;5072130;28;20465;-43
2021/08/17 04:58:58;;;;;;;21.65;4.72;;;;;;;;;;5071436;28;20100;-45
2021/08/17 05:01:26;;;;;;;17.33;4.90;;;;;;;;;;5071573;28;20024;-47
2021/08/17 05:03:53;;;;;;;18.52;5.47;;;;;;;;;;5225646;22;20100;-44
2021/08/17 05:06:20;;;;;;;14.60;4.85;;;;;;;;;;5051517;28;20078;-48
2021/08/17 05:08:47;;;;;;;13.52;4.78;;;;;;;;;;5071875;28;20110;-45
2021/08/17 05:11:14;;;;;;;16.10;4.50;;;;;;;;;;5071042;28;20017;-49
2021/08/17 05:13:41;;;;;;;15.88;5.28;;;;;;;;;;5066958;28;20071;-40
2021/08/17 05:16:08;;;;;;;18.02;4.93;;;;;;;;;;5071424;28;20075;-46
2021/08/17 05:18:36;;;;;;;15.80;4.65;;;;;;;;;;5071685;28;20501;-43
2021/08/17 05:21:03;;;;;;;15.95;4.90;;;;;;;;;;5071058;28;20039;-40
2021/08/17 05:23:31;;;;;;;15.77;4.53;;;;;;;;;;5052248;28;20040;-43
2021/08/17 05:25:58;;;;;;;18.17;5.40;;;;;;;;;;5072027;28;20579;-39
2021/08/17 05:28:25;;;;;;;16.00;4.32;;;;;;;;;;5071593;28;20032;-48
2021/08/17 05:30:52;;;;;;;13.60;4.60;;;;;;;;;;5071121;28;20222;-45
2021/08/17 05:33:19;;;;;;;18.02;5.00;;;;;;;;;;5069229;28;20384;-47
2021/08/17 05:35:46;;;;;;;13.95;4.57;;;;;;;;;;5068506;28;20104;-43
2021/08/17 05:38:13;;;;;;;13.35;4.30;;;;;;;;;;5053409;28;20012;-42
2021/08/17 05:40:40;;;;;;;11.80;4.72;;;;;;;;;;5071185;28;20017;-44
2021/08/17 05:43:07;;;;;;;17.92;4.88;;;;;;;;;;5071080;28;20029;-42
2021/08/17 05:45:34;;;;;;;13.43;4.47;;;;;;;;;;5066793;28;20468;-41
2021/08/17 05:48:01;;;;;;;21.77;5.97;;;;;;;;;;5071331;28;20036;-42
2021/08/17 05:50:28;;;;;;;16.25;4.28;;;;;;;;;;5070889;28;20070;-45
2021/08/17 05:52:55;;;;;;;16.42;5.07;;;;;;;;;;5082488;28;20020;-41
2021/08/17 05:55:22;;;;;;;15.35;4.75;;;;;;;;;;5075083;28;20042;-43
2021/08/17 05:58:00;;;;;;;10.77;4.15;;;;;;;;;;5090839;28;20095;-39
2021/08/17 06:00:27;;;;;;;15.18;4.45;;;;;;;;;;5091306;28;20467;-38
2021/08/17 06:02:54;;;;;;;18.42;5.05;;;;;;;;;;5090828;28;20020;-40
2021/08/17 06:05:22;;;;;;;12.43;4.10;;;;;;;;;;5078845;28;20051;-50
2021/08/17 06:07:49;;;;;;;12.00;4.78;;;;;;;;;;5091600;28;20035;-42
2021/08/17 06:10:17;;;;;;;13.20;4.95;;;;;;;;;;5091247;28;20024;-38
2021/08/17 06:12:44;;;;;;;13.77;4.68;;;;;;;;;;5084099;28;20017;-41
2021/08/17 06:15:12;;;;;;;14.57;4.57;;;;;;;;;;5075540;28;20031;-41
2021/08/17 06:17:39;;;;;;;12.95;4.43;;;;;;;;;;5073137;28;20020;-38
2021/08/17 06:20:07;;;;;;;15.25;3.97;;;;;;;;;;5091028;28;20117;-42
2021/08/17 06:22:35;;;;;;;13.93;4.00;;;;;;;;;;5090870;28;20510;-39
2021/08/17 06:25:02;;;;;;;18.20;5.18;;;;;;;;;;5080489;28;20178;-45
2021/08/17 06:27:29;;;;;;;17.02;4.32;;;;;;;;;;5072385;28;20463;-47
2021/08/17 06:29:56;;;;;;;16.65;4.60;;;;;;;;;;5090994;28;20063;-56
2021/08/17 06:32:23;;;;;;;12.32;4.18;;;;;;;;;;5090640;28;20027;-56
2021/08/17 06:34:50;;;;;;;11.35;4.35;;;;;;;;;;5086480;28;20029;-51
2021/08/17 06:37:17;;;;;;;12.68;4.30;;;;;;;;;;5084076;28;20020;-50
2021/08/17 06:39:44;;;;;;;14.45;4.10;;;;;;;;;;5091261;28;20008;-48
2021/08/17 06:42:11;;;;;;;10.27;4.20;;;;;;;;;;5090658;28;20027;-49
2021/08/17 06:44:38;;;;;;;10.98;3.63;;;;;;;;;;5090444;28;20020;-52
2021/08/17 06:47:05;;;;;;;13.77;3.92;;;;;;;;;;5079729;28;20020;-53
2021/08/17 06:49:32;;;;;;;13.07;4.30;;;;;;;;;;5090619;28;20111;-56
2021/08/17 06:51:59;;;;;;;13.32;4.38;;;;;;;;;;5073038;28;20021;-56
2021/08/17 06:54:26;;;;;;;13.43;3.90;;;;;;;;;;5090264;28;20095;-51
2021/08/17 06:56:53;;;;;;;12.68;3.75;;;;;;;;;;5079686;28;20112;-46
2021/08/17 06:59:20;;;;;;;12.38;4.20;;;;;;;;;;5090458;28;20107;-51
2021/08/17 07:01:47;;;;;;;15.60;3.60;;;;;;;;;;5072776;28;20382;-43
2021/08/17 07:04:14;;;;;;;10.65;3.55;;;;;;;;;;5089801;28;20037;-50
2021/08/17 07:06:41;;;;;;;9.68;3.20;;;;;;;;;;5060625;28;20024;-47
2021/08/17 07:09:08;;;;;;;14.07;3.65;;;;;;;;;;5073284;28;20740;-39
2021/08/17 07:11:35;;;;;;;10.05;4.28;;;;;;;;;;5090498;28;20378;-44
2021/08/17 07:14:02;;;;;;;7.10;3.60;;;;;;;;;;5090756;28;20024;-49
2021/08/17 07:16:30;;;;;;;10.73;3.40;;;;;;;;;;5083150;28;20030;-51
2021/08/17 07:18:57;;;;;;;9.80;3.53;;;;;;;;;;5094604;28;20027;-46
2021/08/17 07:21:24;;;;;;;17.02;3.35;;;;;;;;;;5075896;28;20391;-48
2021/08/17 07:23:51;;;;;;;10.05;3.20;;;;;;;;;;5064864;28;20099;-37
2021/08/17 07:26:18;;;;;;;9.48;3.20;;;;;;;;;;5085444;28;20131;-36
2021/08/17 07:28:45;;;;;;;10.60;3.78;;;;;;;;;;5091531;28;20047;-37
2021/08/17 07:31:13;;;;;;;9.15;3.00;;;;;;;;;;5094127;28;20069;-37
2021/08/17 07:33:40;;;;;;;8.90;3.20;;;;;;;;;;5093835;28;20035;-39
2021/08/17 07:36:07;;;;;;;9.48;3.20;;;;;;;;;;5091490;28;20020;-40
2021/08/17 07:38:34;;;;;;;9.90;3.40;;;;;;;;;;5085275;28;20031;-40
2021/08/17 07:41:01;;;;;;;7.05;2.90;;;;;;;;;;5094321;28;20097;-37
2021/08/17 07:43:28;;;;;;;10.93;3.50;;;;;;;;;;5093812;28;20015;-36
2021/08/17 07:45:55;;;;;;;6.65;2.60;;;;;;;;;;5093313;28;20054;-38
2021/08/17 07:48:22;;;;;;;7.93;2.92;;;;;;;;;;5053469;28;20041;-37
2021/08/17 07:50:49;;;;;;;7.10;2.97;;;;;;;;;;5091661;28;20027;-37
2021/08/17 07:53:16;;;;;;;9.98;2.67;;;;;;;;;;5075436;28;20099;-37
2021/08/17 07:55:43;;;;;;;5.97;2.53;;;;;;;;;;5093059;28;20048;-38
2021/08/17 07:58:10;;;;;;;7.32;2.63;;;;;;;;;;5075064;28;20372;-38
2021/08/17 08:00:38;;;;;;;9.07;2.80;;;;;;;;;;5088439;28;20047;-36
2021/08/17 08:03:04;;;;;;;7.53;2.88;;;;;;;;;;5093283;28;20020;-39
2021/08/17 08:05:31;;;;;;;8.32;2.67;;;;;;;;;;5092614;28;20048;-37
2021/08/17 08:07:58;;;;;;;5.55;2.55;;;;;;;;;;5079344;28;20488;-37
2021/08/17 08:10:26;;;;;;;6.72;2.25;;;;;;;;;;5093907;28;20387;-36
2021/08/17 08:12:52;;;;;;;5.35;2.47;;;;;;;;;;5093318;28;20539;-37
2021/08/17 08:15:19;;;;;;;8.52;2.65;;;;;;;;;;5092761;28;20698;-38
2021/08/17 08:17:47;;;;;;;4.20;1.98;;;;;;;;;;5081527;28;20028;-37
2021/08/17 08:20:14;;;;;;;7.07;2.45;;;;;;;;;;5091325;28;20054;-37
2021/08/17 08:22:41;;;;;;;7.85;2.80;;;;;;;;;;5093084;28;20027;-39
2021/08/17 08:25:08;;;;;;;6.03;2.28;;;;;;;;;;5092476;28;20028;-37
2021/08/17 08:27:36;;;;;;;6.05;2.08;;;;;;;;;;5086315;28;20060;-39
2021/08/17 08:30:05;;;;;;;7.65;2.38;;;;;;;;;;5086103;28;20479;-37
2021/08/17 08:32:32;;;;;;;6.57;2.40;;;;;;;;;;5075192;28;20024;-39
2021/08/17 08:34:59;;;;;;;6.38;2.42;;;;;;;;;;5092443;28;20052;-37
2021/08/17 08:37:26;;;;;;;6.63;2.13;;;;;;;;;;5091927;28;20024;-38
2021/08/17 08:39:55;;;;;;;6.82;2.20;;;;;;;;;;5080595;28;20510;-39
2021/08/17 08:42:22;;;;;;;6.00;2.20;;;;;;;;;;5092441;28;20024;-39
2021/08/17 08:44:49;;;;;;;6.15;1.90;;;;;;;;;;5092684;28;20048;-38
2021/08/17 08:47:17;;;;;;;8.45;2.22;;;;;;;;;;5091960;28;20024;-39
2021/08/17 08:49:45;;;;;;;7.22;2.78;;;;;;;;;;5078127;28;20040;-36
2021/08/17 08:52:12;;;;;;;4.72;1.98;;;;;;;;;;5069405;28;20028;-39
2021/08/17 08:54:39;;;;;;;8.00;2.10;;;;;;;;;;5092232;28;20045;-38
2021/08/17 08:57:06;;;;;;;5.15;2.05;;;;;;;;;;5091964;28;20020;-38
2021/08/17 08:59:33;;;;;;;7.30;1.90;;;;;;;;;;5074164;28;20024;-38
2021/08/17 09:02:26;;;;;;;4.95;2.25;;;;;;;;;;5081143;28;20385;-43
2021/08/17 09:04:54;;;;;;;6.57;1.98;;;;;;;;;;5084623;28;20036;-56
2021/08/17 09:07:34;;;;;;;6.28;1.80;;;;;;;;;;5092164;28;20031;-53
2021/08/17 09:10:12;;;;;;;5.13;1.95;;;;;;;;;;5092103;28;20032;-56
2021/08/17 09:12:43;;;;;;;5.63;2.08;;;;;;;;;;5078074;28;20103;-52
2021/08/17 09:15:12;;;;;;;3.00;1.40;;;;;;;;;;5090502;28;20055;-53
2021/08/17 09:17:40;;;;;;;5.20;1.73;;;;;;;;;;5091863;28;20103;-51
2021/08/17 09:20:08;;;;;;;5.25;1.50;;;;;;;;;;5091346;28;20023;-56
2021/08/17 09:22:36;;;;;;;3.83;1.48;;;;;;;;;;5080040;28;20368;-56
2021/08/17 09:25:04;;;;;;;5.05;1.90;;;;;;;;;;5087697;28;20039;-45
2021/08/17 09:27:32;;;;;;;3.72;1.50;;;;;;;;;;5092209;28;20063;-53
2021/08/17 09:30:13;;;;;;;5.55;1.70;;;;;;;;;;5090968;28;20020;-46
2021/08/17 09:32:58;;;;;;;5.90;1.50;;;;;;;;;;5081189;28;20050;-37
2021/08/17 09:35:27;;;;;;;4.35;1.70;;;;;;;;;;5068453;28;20052;-44
2021/08/17 09:38:06;;;;;;;7.10;1.70;;;;;;;;;;5070816;28;20103;-44
2021/08/17 09:40:33;;;;;;;6.68;1.42;;;;;;;;;;5070599;28;20021;-44
2021/08/17 09:43:13;;;;;;;6.45;1.40;;;;;;;;;;5066068;28;20760;-46
2021/08/17 09:45:41;;;;;;;4.57;1.40;;;;;;;;;;5071702;28;20472;-40
2021/08/17 09:48:11;;;;;;;5.90;1.70;;;;;;;;;;5071511;28;20028;-44
2021/08/17 09:50:41;;;;;;;3.95;1.83;;;;;;;;;;5071018;28;20028;-43
2021/08/17 09:53:10;;;;;;;5.13;1.88;;;;;;;;;;5071341;28;20024;-41
2021/08/17 09:55:47;;;;;;;6.78;1.67;;;;;;;;;;5071041;28;20104;-42
2021/08/17 09:58:18;;;;;;;6.00;1.58;;;;;;;;;;5071566;28;20382;-47
2021/08/17 10:00:45;;;;;;;4.43;1.50;;;;;;;;;;5083381;28;20024;-44
2021/08/17 10:03:14;;;;;;;6.70;1.70;;;;;;;;;;5090701;28;20012;-38
2021/08/17 10:05:42;;;;;;;5.80;1.50;;;;;;;;;;5071132;28;20044;-39
2021/08/17 10:08:13;;;;;;;7.78;1.30;;;;;;;;;;5071001;28;20033;-41
2021/08/17 10:10:44;;;;;;;4.88;1.30;;;;;;;;;;5071281;28;20507;-48
2021/08/17 10:13:12;;;;;;;7.05;1.85;;;;;;;;;;5071235;28;20082;-45
2021/08/17 10:15:40;;;;;;;5.97;1.63;;;;;;;;;;5071528;28;20035;-40
2021/08/17 10:18:08;;;;;;;8.45;1.77;;;;;;;;;;5071209;28;20033;-42
2021/08/17 10:20:37;;;;;;;3.65;1.40;;;;;;;;;;5071694;28;20024;-39
2021/08/17 10:23:04;;;;;;;5.82;1.48;;;;;;;;;;5070826;28;20033;-42
2021/08/17 10:25:51;;;;;;;6.55;1.70;;;;;;;;;;5071047;28;20046;-42
2021/08/17 10:28:33;;;;;;;6.18;1.75;;;;;;;;;;5070165;28;20491;-42
2021/08/17 10:31:20;;;;;;;5.70;1.30;;;;;;;;;;5061657;28;20017;-44
2021/08/17 10:33:53;;;;;;;8.07;1.30;;;;;;;;;;5050265;28;20473;-42
2021/08/17 10:36:38;;;;;;;6.53;1.40;;;;;;;;;;5050786;28;20132;-38
2021/08/17 10:39:28;;;;;;;8.90;1.70;;;;;;;;;;5054882;28;20474;-42
2021/08/17 10:41:55;;;;;;;7.75;1.40;;;;;;;;;;5049209;28;20033;-41
2021/08/17 10:44:32;;;;;;;6.90;1.70;;;;;;;;;;5050973;28;20039;-36
2021/08/17 10:47:01;;;;;;;7.40;1.20;;;;;;;;;;5050614;28;20017;-36
2021/08/17 10:49:44;;;;;;;12.38;1.60;;;;;;;;;;5057817;28;20410;-39
2021/08/17 10:52:12;;;;;;;8.20;1.50;;;;;;;;;;5053116;28;20665;-40
2021/08/17 10:54:40;;;;;;;9.15;1.70;;;;;;;;;;5053539;28;20025;-40
2021/08/17 10:57:16;;;;;;;8.95;1.67;;;;;;;;;;5054149;28;20021;-42
2021/08/17 10:59:44;;;;;;;7.15;1.30;;;;;;;;;;5056481;28;20718;-39
2021/08/17 11:02:12;;;;;;;7.80;1.40;;;;;;;;;;5074567;28;20032;-38
2021/08/17 11:04:43;;;;;;;9.20;1.52;;;;;;;;;;5085281;28;20131;-37
2021/08/17 11:07:22;;;;;;;10.75;1.58;;;;;;;;;;5094006;28;20494;-39
2021/08/17 11:09:50;;;;;;;10.38;1.65;;;;;;;;;;5094129;28;20036;-42
2021/08/17 11:12:18;;;;;;;10.10;1.70;;;;;;;;;;5094507;28;20378;-37
2021/08/17 11:14:46;;;;;;;54.88;4.03;;;;;;;;;;5093287;28;20064;-39
2021/08/17 11:17:14;;;;;;;36.38;3.40;;;;;;;;;;5094328;28;20021;-39
2021/08/17 11:19:42;;;;;;;30.15;3.10;;;;;;;;;;5076439;28;20020;-40
2021/08/17 11:22:10;;;;;;;39.75;2.85;;;;;;;;;;5066515;28;20103;-43
2021/08/17 11:24:39;;;;;;;67.47;4.35;;;;;;;;;;5094145;28;20087;-46
2021/08/17 11:27:07;;;;;;;52.25;4.75;;;;;;;;;;5094116;28;20017;-42
2021/08/17 11:32:31;;;;;;;31.70;2.97;;;;;;;;;;5152827;22;20063;-46
2021/08/17 11:35:03;;;;;;;31.50;3.47;;;;;;;;;;5065762;28;20024;-43
2021/08/17 11:37:31;;;;;;;16.83;2.67;;;;;;;;;;5073241;28;20015;-50
2021/08/17 11:39:59;;;;;;;13.63;2.63;;;;;;;;;;5060091;28;20024;-45
2021/08/17 11:42:27;;;;;;;400.08;25.35;;;;;;;;;;5081714;28;20032;-44
2021/08/17 11:45:02;;;;;;;121.68;10.30;;;;;;;;;;5072676;28;20016;-42
2021/08/17 11:47:29;;;;;;;76.40;7.13;;;;;;;;;;5073131;28;20078;-41
2021/08/17 11:49:58;;;;;;;49.92;5.90;;;;;;;;;;5073505;28;20131;-41
2021/08/17 11:52:37;;;;;;;51.30;5.47;;;;;;;;;;5073420;28;20017;-37
2021/08/17 11:55:05;;;;;;;46.80;5.22;;;;;;;;;;5054764;28;20056;-37
2021/08/17 11:57:34;;;;;;;42.78;4.80;;;;;;;;;;5057574;28;20028;-38
2021/08/17 12:00:19;;;;;;;75.40;8.20;;;;;;;;;;5062182;28;20035;-34
2021/08/17 12:02:47;;;;;;;68.25;7.55;;;;;;;;;;5073026;28;20562;-42
2021/08/17 12:05:15;;;;;;;67.15;7.38;;;;;;;;;;5071563;28;20503;-43
2021/08/17 12:07:43;;;;;;;61.85;6.82;;;;;;;;;;5070028;28;20491;-40
2021/08/17 12:10:10;;;;;;;70.03;6.88;;;;;;;;;;5044698;28;20466;-35
2021/08/17 12:12:55;;;;;;;51.92;6.60;;;;;;;;;;5059341;28;20009;-36
2021/08/17 12:15:30;;;;;;;51.92;6.65;;;;;;;;;;5057528;28;20033;-36
2021/08/17 12:18:17;;;;;;;61.67;6.85;;;;;;;;;;5056551;28;20013;-36
2021/08/17 12:20:44;;;;;;;54.70;6.40;;;;;;;;;;5044605;28;20036;-34
2021/08/17 12:23:17;;;;;;;45.92;6.13;;;;;;;;;;5035670;28;20025;-35
2021/08/17 12:25:44;;;;;;;41.17;5.85;;;;;;;;;;5058539;28;20491;-35
2021/08/17 12:28:24;;;;;;;49.10;5.95;;;;;;;;;;5056969;28;20029;-39
2021/08/17 12:31:05;;;;;;;42.28;4.95;;;;;;;;;;5039420;28;20053;-40
2021/08/17 12:33:32;;;;;;;47.83;6.35;;;;;;;;;;5042958;28;20387;-43
2021/08/17 12:35:59;;;;;;;44.22;5.25;;;;;;;;;;5052347;28;20017;-56
2021/08/17 12:38:26;;;;;;;34.80;4.68;;;;;;;;;;5052825;28;20376;-45
2021/08/17 12:40:54;;;;;;;37.47;4.78;;;;;;;;;;5066776;28;20024;-42
2021/08/17 12:43:23;;;;;;;39.75;4.90;;;;;;;;;;5070054;28;20581;-40
2021/08/17 12:45:50;;;;;;;32.40;4.95;;;;;;;;;;5072393;28;20083;-42
2021/08/17 12:48:19;;;;;;;34.20;5.18;;;;;;;;;;5071843;28;20124;-42
2021/08/17 12:50:47;;;;;;;34.75;4.18;;;;;;;;;;5069144;28;20063;-40
2021/08/17 12:53:20;;;;;;;37.70;5.07;;;;;;;;;;5051722;28;20021;-42
2021/08/17 12:55:47;;;;;;;32.55;4.60;;;;;;;;;;5043368;28;20029;-45
2021/08/17 12:58:14;;;;;;;30.73;5.10;;;;;;;;;;5050263;28;20024;-46
2021/08/17 13:00:43;;;;;;;24.90;4.13;;;;;;;;;;5051551;28;20031;-41
2021/08/17 13:03:12;;;;;;;27.67;4.05;;;;;;;;;;5051149;28;20496;-43
2021/08/17 13:05:40;;;;;;;29.20;3.92;;;;;;;;;;5049334;28;20506;-54
2021/08/17 13:08:08;;;;;;;28.08;4.00;;;;;;;;;;5058713;28;20020;-41
2021/08/17 13:10:36;;;;;;;34.42;4.30;;;;;;;;;;5062838;28;20029;-39
2021/08/17 13:13:03;;;;;;;31.55;3.90;;;;;;;;;;5051494;28;20028;-37
2021/08/17 13:15:30;;;;;;;24.15;4.15;;;;;;;;;;5051892;28;20071;-37
2021/08/17 13:17:57;;;;;;;33.33;5.05;;;;;;;;;;5048805;28;20021;-40
2021/08/17 13:20:24;;;;;;;36.42;5.05;;;;;;;;;;5049114;28;20017;-44
2021/08/17 13:22:52;;;;;;;38.03;4.85;;;;;;;;;;5050069;28;20017;-50
2021/08/17 13:25:20;;;;;;;39.58;4.40;;;;;;;;;;5052785;28;20390;-46
2021/08/17 13:27:49;;;;;;;39.13;3.90;;;;;;;;;;5033255;28;20017;-44
2021/08/17 13:30:16;;;;;;;45.70;4.40;;;;;;;;;;5052459;28;20032;-43
2021/08/17 13:32:43;;;;;;;36.22;4.43;;;;;;;;;;5068229;28;20021;-42
2021/08/17 13:35:11;;;;;;;30.95;3.83;;;;;;;;;;5056302;28;20036;-49
2021/08/17 13:37:38;;;;;;;27.55;4.05;;;;;;;;;;5059146;28;20116;-46
2021/08/17 13:40:05;;;;;;;31.20;3.53;;;;;;;;;;5057056;28;20028;-46
2021/08/17 13:42:32;;;;;;;32.22;3.60;;;;;;;;;;5049274;28;20025;-40
2021/08/17 13:44:59;;;;;;;24.90;3.55;;;;;;;;;;5050582;28;21207;-42
2021/08/17 13:47:27;;;;;;;32.67;3.85;;;;;;;;;;5050612;28;20476;-45
2021/08/17 13:49:54;;;;;;;26.05;3.47;;;;;;;;;;5050849;28;20518;-38
2021/08/17 13:52:21;;;;;;;27.73;3.28;;;;;;;;;;5210746;22;20019;-43
2021/08/17 13:54:48;;;;;;;26.85;4.03;;;;;;;;;;5029004;28;20083;-51
2021/08/17 13:57:15;;;;;;;21.40;3.80;;;;;;;;;;5051207;28;20412;-41
2021/08/17 13:59:42;;;;;;;35.33;4.15;;;;;;;;;;5041823;28;20527;-42
2021/08/17 14:02:09;;;;;;;37.90;5.07;;;;;;;;;;5049392;28;20027;-40
2021/08/17 14:04:38;;;;;;;21.80;3.80;;;;;;;;;;5051046;28;20047;-42
2021/08/17 14:07:05;;;;;;;31.05;4.18;;;;;;;;;;5048775;28;20426;-43
2021/08/17 14:09:32;;;;;;;41.50;3.97;;;;;;;;;;5126736;22;20061;-43
2021/08/17 14:11:59;;;;;;;31.50;4.45;;;;;;;;;;5030992;28;20104;-42
2021/08/17 14:14:26;;;;;;;26.02;3.90;;;;;;;;;;5029219;28;20048;-41
2021/08/17 14:16:53;;;;;;;26.88;3.72;;;;;;;;;;5029934;28;20474;-42
2021/08/17 14:19:20;;;;;;;27.95;3.75;;;;;;;;;;5027468;28;20036;-43
2021/08/17 14:21:49;;;;;;;22.58;3.55;;;;;;;;;;5029384;28;20385;-43
2021/08/17 14:24:16;;;;;;;33.55;3.55;;;;;;;;;;5030849;28;20108;-44
2021/08/17 14:26:44;;;;;;;29.40;3.72;;;;;;;;;;5034958;28;20018;-44
2021/08/17 14:29:11;;;;;;;33.70;4.40;;;;;;;;;;5034614;28;20108;-43
2021/08/17 14:31:38;;;;;;;35.50;3.88;;;;;;;;;;5033153;28;20021;-43
2021/08/17 14:34:05;;;;;;;33.50;3.75;;;;;;;;;;5034546;28;20465;-43
2021/08/17 14:36:33;;;;;;;35.92;4.25;;;;;;;;;;5033643;28;20060;-44
2021/08/17 14:39:02;;;;;;;30.27;4.00;;;;;;;;;;5034383;28;20029;-43
2021/08/17 14:41:29;;;;;;;28.20;4.25;;;;;;;;;;5032653;28;20029;-43